Main page
METAR-TAF:

METAR-TAF

Airports :

Custer County Airport

Custer, South Dakota, United States

latitude: 43-43-59N, longitude: 103-37-03W, elevation: 5599 ft

Current weather observation

The report was made 25 minutes ago, at 01:53 UTC
Wind 15 mph from the West with gusts up to 22 mph
Temperature 55°F
Humidity 30%
Pressure 29.75 in. Hg
Visibility: 10 miles
Broken clouds at a height of 10000 ft
Broken clouds at a height of 11000 ft

METAR: KCUT 070153Z AUTO 26013G19KT 10SM BKN100 BKN110 13/M04 A2975 RMK AO2 SLP036 T01281039

Time: 20:18 (02:18 UTC)


TAF: missing

Weather observations and forecasts of more than 4000 airports (METAR and TAF reports).

The available stations are represented by yellow and red dots on the map.

Hover mouse over dot to see the name of the station.

Then click to see weather observations and forecasts.

To change the map : click on the green buttons with a black cross to zoom in, on the green button with a dash to zoom out, or on the green arrows for adjacent maps.


METAR-TAF: